Terminal Aerodrome Forecast
Issued by NWS Shreveport, LA

Home | Current Version | Previous Version | Text Only | Print | Product List | Glossary On
Versions: 1 2 3 4 5 6 7 8 9 10 11 12 13 14 15 16 17 18 19 20 21 22 23 24
000
FTUS44 KSHV 081740
TAFLFK
TAF
KLFK 081740Z 0818/0918 32014G25KT P6SM SKC
     FM082100 29017G26KT P6SM SKC
     FM090000 31008KT P6SM SKC
     FM090300 VRB03KT P6SM SKC
     FM091600 31007G14KT P6SM SKC=

USA.gov is the U.S. government's official web portal to all federal, state and local government web resources and services.